Time;durP1;ratioP1;P1;durP2;ratioP2;P2;SDS_P1;SDS_P2;PMS_P1;PMS_P2;Temp;Humidity;BMP_temperature;BMP_pressure;BME280_temperature;BME280_humidity;BME280_pressure;Samples;Min_cycle;Max_cycle;Signal;HPM_P1;HPM_P2
2020/12/12 00:00:15;;;;;;;54.88;26.17;;;7.10;99.90;;;;;;5084256;28;20278;-68
2020/12/12 00:02:41;;;;;;;49.55;26.63;;;7.10;99.90;;;;;;5084007;28;20201;-68
2020/12/12 00:05:08;;;;;;;58.42;29.83;;;7.10;99.90;;;;;;5085305;28;20205;-68
2020/12/12 00:07:34;;;;;;;52.50;27.73;;;7.20;99.90;;;;;;5082986;28;20674;-68
2020/12/12 00:10:00;;;;;;;50.83;25.65;;;7.20;99.90;;;;;;5085193;28;20200;-69
2020/12/12 00:12:28;;;;;;;54.92;26.25;;;7.10;99.90;;;;;;5081257;28;20220;-67
2020/12/12 00:14:54;;;;;;;59.47;26.65;;;7.10;99.90;;;;;;5085678;28;20206;-67
2020/12/12 00:17:20;;;;;;;48.78;25.85;;;7.10;99.90;;;;;;5082658;28;20202;-67
2020/12/12 00:19:47;;;;;;;61.60;26.80;;;7.10;99.90;;;;;;5084613;28;20230;-67
2020/12/12 00:22:13;;;;;;;48.30;25.55;;;7.10;99.90;;;;;;5085337;28;20197;-68
2020/12/12 00:24:39;;;;;;;53.05;25.63;;;7.10;99.90;;;;;;5085321;28;20247;-68
2020/12/12 00:27:06;;;;;;;50.40;25.05;;;7.10;99.90;;;;;;5085233;28;20258;-67
2020/12/12 00:29:33;;;;;;;54.15;26.40;;;7.10;99.90;;;;;;5084418;28;20989;-67
2020/12/12 00:32:00;;;;;;;62.92;26.20;;;7.00;99.90;;;;;;5082837;28;20219;-68
2020/12/12 00:34:27;;;;;;;44.90;24.83;;;7.00;99.90;;;;;;5083615;28;20217;-67
2020/12/12 00:36:54;;;;;;;49.90;25.52;;;7.00;99.90;;;;;;5083929;28;20225;-68
2020/12/12 00:39:22;;;;;;;47.50;25.30;;;6.90;99.90;;;;;;5085553;28;20634;-68
2020/12/12 00:41:49;;;;;;;55.55;25.65;;;6.90;99.90;;;;;;5079409;28;20633;-67
2020/12/12 00:44:16;;;;;;;63.25;25.63;;;7.00;99.90;;;;;;5084945;28;20202;-68
2020/12/12 00:46:44;;;;;;;57.17;25.63;;;7.00;99.90;;;;;;5080931;28;20666;-68
2020/12/12 00:49:12;;;;;;;53.58;26.45;;;7.00;99.90;;;;;;5085661;28;20288;-68
2020/12/12 00:51:38;;;;;;;51.55;26.17;;;6.90;99.90;;;;;;5080033;28;20701;-66
2020/12/12 00:54:05;;;;;;;57.80;26.08;;;6.90;99.90;;;;;;5079184;28;20228;-68
2020/12/12 00:56:32;;;;;;;59.35;25.95;;;6.90;99.90;;;;;;5085809;28;20205;-67
2020/12/12 00:58:59;;;;;;;59.88;26.35;;;6.90;99.90;;;;;;5083958;28;20307;-69
2020/12/12 01:01:25;;;;;;;60.97;26.65;;;6.90;99.90;;;;;;5085166;28;20290;-68
2020/12/12 01:03:53;;;;;;;66.70;26.67;;;7.00;99.90;;;;;;5083202;28;20210;-68
2020/12/12 01:06:19;;;;;;;54.67;25.77;;;7.00;99.90;;;;;;5084196;28;20193;-67
2020/12/12 01:08:46;;;;;;;69.68;26.45;;;7.00;99.90;;;;;;5083083;28;20340;-68
2020/12/12 01:11:14;;;;;;;51.10;27.05;;;7.10;99.90;;;;;;5087682;28;20694;-68
2020/12/12 01:13:41;;;;;;;72.18;26.40;;;7.10;99.90;;;;;;5087668;28;20206;-68
2020/12/12 01:16:09;;;;;;;61.33;26.58;;;7.10;99.90;;;;;;5088547;28;20206;-67
2020/12/12 01:18:36;;;;;;;63.38;27.33;;;7.10;99.90;;;;;;5087786;28;20213;-68
2020/12/12 01:21:04;;;;;;;54.38;27.20;;;7.10;99.90;;;;;;5083252;28;20285;-68
2020/12/12 01:23:31;;;;;;;57.85;26.55;;;7.10;99.90;;;;;;5088900;28;20259;-68
2020/12/12 01:25:57;;;;;;;61.33;25.90;;;7.10;99.90;;;;;;5086917;28;20614;-68
2020/12/12 01:28:24;;;;;;;85.30;26.75;;;7.10;99.90;;;;;;5088724;28;20263;-68
2020/12/12 01:30:52;;;;;;;53.70;26.63;;;7.10;99.90;;;;;;5084293;28;20363;-68
2020/12/12 01:33:18;;;;;;;65.35;26.55;;;7.10;99.90;;;;;;5088615;28;20217;-67
2020/12/12 01:35:45;;;;;;;64.30;26.80;;;7.10;99.90;;;;;;5086915;28;20557;-68
2020/12/12 01:38:12;;;;;;;67.95;28.30;;;7.10;99.90;;;;;;5087656;28;20310;-68
2020/12/12 01:40:38;;;;;;;61.20;25.85;;;7.10;99.90;;;;;;5087250;28;20229;-68
2020/12/12 01:43:05;;;;;;;72.18;26.30;;;7.10;99.90;;;;;;5086476;28;20198;-67
2020/12/12 01:45:31;;;;;;;61.40;26.33;;;7.10;99.90;;;;;;5084987;28;20207;-67
2020/12/12 01:47:58;;;;;;;62.53;26.33;;;7.10;99.90;;;;;;5085425;28;20201;-68
2020/12/12 01:50:25;;;;;;;70.95;27.75;;;7.10;99.90;;;;;;5085175;28;20222;-68
2020/12/12 01:52:52;;;;;;;75.95;26.92;;;7.00;99.90;;;;;;5085557;28;20574;-67
2020/12/12 01:55:21;;;;;;;65.00;26.85;;;7.00;99.90;;;;;;5082083;28;21819;-68
2020/12/12 01:57:49;;;;;;;64.38;27.98;;;7.10;99.90;;;;;;5081265;28;20202;-68
2020/12/12 02:00:15;;;;;;;66.10;27.42;;;7.20;99.90;;;;;;5084288;28;20245;-68
2020/12/12 02:02:46;;;;;;;57.13;26.27;;;7.20;99.90;;;;;;5080989;28;20252;-67
2020/12/12 02:05:38;;;;;;;66.90;26.48;;;7.20;99.90;;;;;;5084279;28;20638;-68
2020/12/12 02:08:06;;;;;;;79.47;26.98;;;7.20;99.90;;;;;;5084291;28;20216;-68
2020/12/12 02:10:33;;;;;;;70.03;26.75;;;7.10;99.90;;;;;;5081841;28;20202;-68
2020/12/12 02:13:00;;;;;;;57.72;25.75;;;7.20;99.90;;;;;;5083854;28;20655;-68
2020/12/12 02:15:27;;;;;;;62.72;27.00;;;7.10;99.90;;;;;;5082328;28;20282;-69
2020/12/12 02:17:53;;;;;;;74.32;27.92;;;7.20;99.90;;;;;;5081677;28;20202;-67
2020/12/12 02:20:19;;;;;;;64.65;27.67;;;7.10;99.90;;;;;;5083236;28;20221;-68
2020/12/12 02:22:46;;;;;;;70.93;27.13;;;7.20;99.90;;;;;;5081270;28;20718;-68
2020/12/12 02:25:13;;;;;;;66.97;29.13;;;7.20;99.90;;;;;;5083397;28;20604;-67
2020/12/12 02:27:39;;;;;;;67.95;27.73;;;7.20;99.90;;;;;;5080685;28;20311;-67
2020/12/12 02:30:06;;;;;;;77.40;28.42;;;7.20;99.90;;;;;;5086145;28;20198;-67
2020/12/12 02:32:32;;;;;;;69.25;27.17;;;7.10;99.90;;;;;;5083439;28;20229;-68
2020/12/12 02:34:59;;;;;;;69.55;30.35;;;7.10;99.90;;;;;;5088100;28;20279;-68
2020/12/12 02:37:25;;;;;;;69.13;29.02;;;7.20;99.90;;;;;;5085106;28;20337;-68
2020/12/12 02:39:52;;;;;;;60.22;28.83;;;7.10;99.90;;;;;;5087703;28;20728;-67
2020/12/12 02:42:19;;;;;;;68.03;29.42;;;7.20;99.90;;;;;;5086203;28;20212;-67
2020/12/12 02:44:49;;;;;;;65.72;28.88;;;7.20;99.90;;;;;;5086201;28;20251;-67
2020/12/12 02:47:16;;;;;;;79.38;28.65;;;7.30;99.90;;;;;;5084821;28;20205;-67
2020/12/12 02:49:42;;;;;;;74.85;29.35;;;7.30;99.90;;;;;;5085080;28;20291;-67
2020/12/12 02:52:08;;;;;;;81.38;28.02;;;7.40;99.90;;;;;;5081474;28;20210;-67
2020/12/12 02:54:34;;;;;;;77.13;27.52;;;7.40;99.90;;;;;;5085408;28;20208;-68
2020/12/12 02:57:01;;;;;;;70.03;28.70;;;7.40;99.90;;;;;;5085605;28;20226;-68
2020/12/12 02:59:28;;;;;;;72.97;29.08;;;7.40;99.90;;;;;;5086454;28;20324;-69
2020/12/12 03:01:54;;;;;;;74.63;29.45;;;7.40;99.90;;;;;;5084316;28;20656;-65
2020/12/12 03:04:20;;;;;;;67.50;28.02;;;7.40;99.90;;;;;;5088518;28;20596;-68
2020/12/12 03:06:46;;;;;;;75.93;29.23;;;7.50;99.90;;;;;;5084365;28;20240;-67
2020/12/12 03:09:13;;;;;;;65.82;29.67;;;7.40;99.90;;;;;;5086787;28;20202;-67
2020/12/12 03:11:39;;;;;;;75.80;30.02;;;7.50;99.90;;;;;;5087055;28;20202;-67
2020/12/12 03:14:06;;;;;;;79.13;29.88;;;7.40;99.90;;;;;;5083676;28;20216;-67
2020/12/12 03:16:33;;;;;;;75.68;30.55;;;7.40;99.90;;;;;;5086334;28;20613;-68
2020/12/12 03:18:59;;;;;;;77.25;30.40;;;7.40;99.90;;;;;;5084016;28;20689;-68
2020/12/12 03:21:25;;;;;;;88.75;31.25;;;7.40;99.90;;;;;;5083604;28;20224;-69
2020/12/12 03:23:51;;;;;;;85.47;30.95;;;7.40;99.90;;;;;;5086691;28;20206;-66
2020/12/12 03:26:17;;;;;;;72.03;29.83;;;7.40;99.90;;;;;;5084966;28;20206;-68
2020/12/12 03:28:44;;;;;;;76.93;31.08;;;7.40;99.90;;;;;;5087186;28;20287;-68
2020/12/12 03:31:11;;;;;;;84.30;30.92;;;7.40;99.90;;;;;;5083791;28;20241;-68
2020/12/12 03:33:37;;;;;;;69.32;29.92;;;7.40;99.90;;;;;;5086161;28;20350;-68
2020/12/12 03:36:03;;;;;;;81.25;30.60;;;7.40;99.90;;;;;;5083313;28;20266;-68
2020/12/12 03:38:30;;;;;;;81.65;30.77;;;7.40;99.90;;;;;;5086609;28;20214;-68
2020/12/12 03:40:56;;;;;;;74.40;29.50;;;7.40;99.90;;;;;;5084461;28;20221;-68
2020/12/12 03:43:24;;;;;;;95.25;30.58;;;7.40;99.90;;;;;;5084827;28;20205;-68
2020/12/12 03:45:51;;;;;;;80.50;30.65;;;7.40;99.90;;;;;;5085002;28;20217;-66
2020/12/12 03:48:18;;;;;;;80.38;29.77;;;7.40;99.90;;;;;;5082620;28;20206;-69
2020/12/12 03:50:44;;;;;;;88.35;29.20;;;7.40;99.90;;;;;;5082907;28;20209;-67
2020/12/12 03:53:11;;;;;;;80.28;30.25;;;7.40;99.90;;;;;;5085975;28;20213;-67
2020/12/12 03:55:37;;;;;;;67.70;29.17;;;7.40;99.90;;;;;;5085376;28;20206;-69
2020/12/12 03:58:03;;;;;;;79.75;30.35;;;7.40;99.90;;;;;;5084770;28;20610;-69
2020/12/12 04:00:30;;;;;;;75.22;29.92;;;7.40;99.90;;;;;;5085338;28;20303;-68
2020/12/12 04:02:56;;;;;;;112.18;30.23;;;7.30;99.90;;;;;;5084556;28;20202;-67
2020/12/12 04:05:23;;;;;;;76.45;29.60;;;7.40;99.90;;;;;;5084554;28;20339;-68
2020/12/12 04:07:49;;;;;;;78.85;29.15;;;7.40;99.90;;;;;;5083511;28;20667;-67
2020/12/12 04:10:16;;;;;;;82.90;31.67;;;7.40;99.90;;;;;;5084000;28;20976;-67
2020/12/12 04:12:42;;;;;;;64.40;28.58;;;7.40;99.90;;;;;;5083312;28;20259;-66
2020/12/12 04:15:08;;;;;;;68.45;28.80;;;7.30;99.90;;;;;;5084565;28;20694;-67
2020/12/12 04:17:35;;;;;;;86.72;30.48;;;7.30;99.90;;;;;;5079886;28;20655;-67
2020/12/12 04:20:01;;;;;;;93.50;29.65;;;7.20;99.90;;;;;;5083834;28;20246;-67
2020/12/12 04:22:28;;;;;;;95.45;30.40;;;7.10;99.90;;;;;;5083048;28;20279;-68
2020/12/12 04:24:54;;;;;;;98.53;30.38;;;7.10;99.90;;;;;;5086289;28;20226;-67
2020/12/12 04:27:20;;;;;;;84.82;29.58;;;7.10;99.90;;;;;;5083291;28;20231;-69
2020/12/12 04:29:47;;;;;;;72.30;30.17;;;7.00;99.90;;;;;;5084271;28;20655;-67
2020/12/12 04:32:13;;;;;;;70.32;29.40;;;7.10;99.90;;;;;;5083431;28;20257;-67
2020/12/12 04:34:40;;;;;;;115.00;30.58;;;7.10;99.90;;;;;;5083028;28;20277;-67
2020/12/12 04:37:06;;;;;;;94.22;29.58;;;7.20;99.90;;;;;;5084150;28;20212;-67
2020/12/12 04:39:36;;;;;;;71.75;29.88;;;7.20;99.90;;;;;;5083194;28;20221;-68
2020/12/12 04:42:02;;;;;;;83.55;29.83;;;7.20;99.90;;;;;;5083964;28;20201;-68
2020/12/12 04:44:29;;;;;;;73.63;29.42;;;7.20;99.90;;;;;;5080470;28;20229;-67
2020/12/12 04:46:56;;;;;;;65.70;28.80;;;7.20;99.90;;;;;;5078400;28;20233;-67
2020/12/12 04:49:23;;;;;;;76.35;29.33;;;7.30;99.90;;;;;;5084875;28;20206;-67
2020/12/12 04:51:50;;;;;;;79.78;29.83;;;7.20;99.90;;;;;;5081488;28;20518;-68
2020/12/12 04:54:19;;;;;;;93.28;29.67;;;7.20;99.90;;;;;;5082766;28;20205;-68
2020/12/12 04:56:47;;;;;;;76.97;30.30;;;7.20;99.90;;;;;;5081651;28;20197;-67
2020/12/12 04:59:15;;;;;;;84.65;29.60;;;7.10;99.90;;;;;;5081250;28;20229;-67
2020/12/12 05:01:41;;;;;;;66.32;29.02;;;7.10;99.90;;;;;;5081661;28;20202;-67
2020/12/12 05:04:08;;;;;;;95.47;29.30;;;7.10;99.90;;;;;;5083589;28;20270;-68
2020/12/12 05:06:34;;;;;;;102.00;29.35;;;7.10;99.90;;;;;;5085021;28;20218;-69
2020/12/12 05:09:01;;;;;;;70.22;29.20;;;7.10;99.90;;;;;;5077846;28;20705;-68
2020/12/12 05:11:27;;;;;;;71.93;30.38;;;7.20;99.90;;;;;;5083182;28;20258;-68
2020/12/12 05:13:54;;;;;;;62.45;28.85;;;7.20;99.90;;;;;;5080878;28;20209;-68
2020/12/12 05:16:21;;;;;;;76.75;29.95;;;7.20;99.90;;;;;;5082142;28;20255;-69
2020/12/12 05:18:49;;;;;;;74.57;29.98;;;7.20;99.90;;;;;;5080206;28;20247;-69
2020/12/12 05:21:16;;;;;;;71.82;30.23;;;7.20;99.90;;;;;;5083052;28;20210;-68
2020/12/12 05:23:42;;;;;;;74.43;30.58;;;7.20;99.90;;;;;;5085620;28;20264;-68
2020/12/12 05:26:12;;;;;;;68.10;29.33;;;7.20;99.90;;;;;;5082298;28;20698;-68
2020/12/12 05:28:40;;;;;;;72.93;31.23;;;7.30;99.90;;;;;;5084858;28;20227;-68
2020/12/12 05:31:07;;;;;;;67.80;31.08;;;7.20;99.90;;;;;;5080600;28;20685;-68
2020/12/12 05:33:33;;;;;;;71.85;28.98;;;7.30;99.90;;;;;;5084660;28;20667;-68
2020/12/12 05:36:00;;;;;;;87.55;29.45;;;7.30;99.90;;;;;;5080260;28;20300;-68
2020/12/12 05:38:26;;;;;;;72.45;29.95;;;7.20;99.90;;;;;;5082897;28;20198;-65
2020/12/12 05:40:55;;;;;;;69.88;31.15;;;7.20;99.90;;;;;;5081637;28;20209;-66
2020/12/12 05:43:29;;;;;;;77.22;30.10;;;7.20;99.90;;;;;;5081819;28;20608;-65
2020/12/12 05:45:58;;;;;;;68.40;29.85;;;7.10;99.90;;;;;;5082405;28;20578;-65
2020/12/12 05:48:26;;;;;;;79.00;30.58;;;7.10;99.90;;;;;;5083758;28;20255;-65
2020/12/12 05:50:53;;;;;;;85.50;31.70;;;7.10;99.90;;;;;;5083041;28;20298;-65
2020/12/12 05:53:19;;;;;;;86.82;31.33;;;7.10;99.90;;;;;;5083764;28;20678;-65
2020/12/12 05:55:46;;;;;;;82.00;31.45;;;7.10;99.90;;;;;;5082807;28;20263;-67
2020/12/12 05:58:14;;;;;;;71.47;33.30;;;7.10;99.90;;;;;;5086811;28;20228;-65
2020/12/12 06:00:42;;;;;;;75.93;32.50;;;7.10;99.90;;;;;;5086341;28;20233;-65
2020/12/12 06:03:21;;;;;;;69.03;32.28;;;7.10;99.90;;;;;;5088756;28;20276;-65
2020/12/12 06:05:49;;;;;;;71.65;31.30;;;7.10;99.90;;;;;;5089830;28;20211;-66
2020/12/12 06:08:31;;;;;;;74.78;32.20;;;7.20;99.90;;;;;;5091648;28;20629;-66
2020/12/12 06:11:03;;;;;;;65.63;32.58;;;7.20;99.90;;;;;;5090474;28;20542;-65
2020/12/12 06:13:35;;;;;;;78.03;31.55;;;7.20;99.90;;;;;;5091999;28;20209;-65
2020/12/12 06:16:04;;;;;;;73.85;30.15;;;7.20;99.90;;;;;;5090704;28;20263;-64
2020/12/12 06:18:42;;;;;;;77.40;31.17;;;7.20;99.90;;;;;;5090098;28;20615;-64
2020/12/12 06:21:10;;;;;;;63.83;29.85;;;7.30;99.90;;;;;;5090516;28;20198;-65
2020/12/12 06:23:38;;;;;;;71.15;33.80;;;7.30;99.90;;;;;;5091414;28;20213;-65
2020/12/12 06:26:05;;;;;;;64.38;31.73;;;7.30;99.90;;;;;;5091621;28;20201;-65
2020/12/12 06:28:34;;;;;;;58.42;30.95;;;7.20;99.90;;;;;;5091253;28;20618;-64
2020/12/12 06:31:00;;;;;;;69.78;30.17;;;7.20;99.90;;;;;;5091560;28;20233;-64
2020/12/12 06:33:26;;;;;;;59.00;29.13;;;7.30;99.90;;;;;;5089398;28;20231;-65
2020/12/12 06:35:54;;;;;;;57.92;28.08;;;7.30;99.90;;;;;;5091353;28;20198;-65
2020/12/12 06:38:23;;;;;;;56.50;28.52;;;7.30;99.90;;;;;;5090387;28;20259;-65
2020/12/12 06:40:51;;;;;;;57.78;27.90;;;7.30;99.90;;;;;;5090697;28;20742;-63
2020/12/12 06:43:32;;;;;;;58.97;26.95;;;7.30;99.90;;;;;;5091102;28;20221;-63
2020/12/12 06:46:00;;;;;;;55.20;26.10;;;7.30;99.90;;;;;;5089347;28;20289;-63
2020/12/12 06:48:28;;;;;;;60.53;27.27;;;7.30;99.90;;;;;;5090876;28;20208;-63
2020/12/12 06:50:56;;;;;;;54.08;25.13;;;7.20;99.90;;;;;;5088782;28;20292;-63
2020/12/12 06:53:24;;;;;;;64.70;26.67;;;7.20;99.90;;;;;;5090044;28;20209;-64
2020/12/12 06:56:07;;;;;;;58.95;27.02;;;7.20;99.90;;;;;;5090061;28;20298;-65
2020/12/12 06:58:34;;;;;;;62.10;25.58;;;7.30;99.90;;;;;;5088553;28;20729;-63
2020/12/12 07:01:08;;;;;;;61.35;26.75;;;7.20;99.90;;;;;;5091024;28;20190;-66
2020/12/12 07:03:35;;;;;;;55.63;26.40;;;7.20;99.90;;;;;;5090840;28;20620;-66
2020/12/12 07:06:05;;;;;;;59.92;26.27;;;7.30;99.90;;;;;;5090278;28;20243;-66
2020/12/12 07:08:32;;;;;;;54.75;26.27;;;7.30;99.90;;;;;;5089793;28;20227;-65
2020/12/12 07:11:03;;;;;;;68.00;27.63;;;7.30;99.90;;;;;;5083079;28;20205;-64
2020/12/12 07:13:29;;;;;;;76.25;27.50;;;7.30;99.90;;;;;;5087271;28;20210;-64
2020/12/12 07:15:57;;;;;;;60.60;27.33;;;7.30;99.90;;;;;;5084149;28;20298;-64
2020/12/12 07:18:24;;;;;;;69.47;26.33;;;7.30;99.90;;;;;;5085288;28;20279;-64
2020/12/12 07:20:51;;;;;;;68.15;27.70;;;7.30;99.90;;;;;;5083881;28;20686;-65
2020/12/12 07:23:18;;;;;;;69.97;28.80;;;7.40;99.90;;;;;;5083620;28;20247;-64
2020/12/12 07:25:46;;;;;;;64.63;27.88;;;7.40;99.90;;;;;;5083935;28;20206;-65
2020/12/12 07:28:12;;;;;;;66.60;28.98;;;7.50;99.90;;;;;;5081768;28;20553;-63
2020/12/12 07:30:38;;;;;;;68.80;29.77;;;7.60;99.90;;;;;;5085372;28;20238;-64
2020/12/12 07:33:05;;;;;;;80.72;28.55;;;7.60;99.90;;;;;;5084253;28;20202;-64
2020/12/12 07:35:31;;;;;;;77.63;28.42;;;7.70;99.90;;;;;;5083261;28;20256;-65
2020/12/12 07:38:01;;;;;;;71.78;28.67;;;7.70;99.90;;;;;;5084613;28;20198;-64
2020/12/12 07:40:31;;;;;;;84.22;28.30;;;7.70;99.90;;;;;;5083192;28;20217;-64
2020/12/12 07:42:58;;;;;;;77.93;29.35;;;7.70;99.90;;;;;;5085871;28;20293;-65
2020/12/12 07:45:36;;;;;;;70.30;28.20;;;7.70;99.90;;;;;;5085818;28;20202;-64
2020/12/12 07:48:02;;;;;;;92.15;28.60;;;7.80;99.90;;;;;;5085992;28;20689;-64
2020/12/12 07:50:29;;;;;;;71.10;28.52;;;7.80;99.90;;;;;;5083787;28;20222;-65
2020/12/12 07:52:55;;;;;;;73.00;28.08;;;7.80;99.90;;;;;;5085241;28;20255;-65
2020/12/12 07:55:23;;;;;;;85.68;27.88;;;7.80;99.90;;;;;;5084370;28;20224;-65
2020/12/12 07:57:53;;;;;;;78.20;27.58;;;7.80;99.90;;;;;;5083863;28;20251;-65
2020/12/12 08:00:20;;;;;;;77.63;27.45;;;7.80;99.90;;;;;;5084120;28;20722;-65
2020/12/12 08:02:56;;;;;;;86.97;27.42;;;7.80;99.90;;;;;;5081618;28;20198;-65
2020/12/12 08:05:23;;;;;;;78.93;27.80;;;7.80;99.90;;;;;;5084726;28;20209;-63
2020/12/12 08:07:49;;;;;;;76.00;26.00;;;7.80;99.90;;;;;;5082518;28;20667;-66
2020/12/12 08:10:16;;;;;;;103.85;27.67;;;7.80;99.90;;;;;;5085669;28;20227;-64
2020/12/12 08:12:43;;;;;;;74.10;28.02;;;7.80;99.90;;;;;;5084129;28;20214;-65
2020/12/12 08:15:14;;;;;;;76.30;25.88;;;7.80;99.90;;;;;;5084247;28;20209;-64
2020/12/12 08:17:41;;;;;;;86.30;26.15;;;7.80;99.90;;;;;;5081807;28;20670;-65
2020/12/12 08:20:13;;;;;;;81.53;27.13;;;7.90;99.90;;;;;;5084383;28;20217;-65
2020/12/12 08:22:40;;;;;;;81.72;26.48;;;7.90;99.90;;;;;;5082799;28;20206;-65
2020/12/12 08:25:07;;;;;;;76.88;26.08;;;7.90;99.90;;;;;;5083597;28;20206;-65
2020/12/12 08:27:34;;;;;;;72.25;26.38;;;7.90;99.90;;;;;;5083104;28;20202;-65
2020/12/12 08:30:02;;;;;;;83.90;25.27;;;7.90;99.90;;;;;;5082718;28;20205;-65
2020/12/12 08:32:30;;;;;;;79.15;25.88;;;7.90;99.90;;;;;;5084690;28;20308;-65
2020/12/12 08:35:12;;;;;;;72.55;25.00;;;8.00;99.90;;;;;;5083388;28;20544;-66
2020/12/12 08:37:40;;;;;;;85.53;25.35;;;8.00;99.90;;;;;;5081990;28;20204;-65
2020/12/12 08:40:07;;;;;;;101.72;25.73;;;8.00;99.90;;;;;;5082757;28;20296;-65
2020/12/12 08:42:34;;;;;;;69.63;24.05;;;8.00;99.90;;;;;;5082652;28;20198;-69
2020/12/12 08:45:14;;;;;;;71.63;25.60;;;8.00;99.90;;;;;;5080310;28;20217;-65
2020/12/12 08:47:40;;;;;;;61.25;24.83;;;8.00;99.90;;;;;;5082171;28;20624;-66
2020/12/12 08:50:06;;;;;;;67.97;24.77;;;8.10;99.90;;;;;;5081193;28;20761;-64
2020/12/12 08:52:34;;;;;;;74.30;25.25;;;8.10;99.90;;;;;;5080991;28;20733;-64
2020/12/12 08:55:00;;;;;;;91.55;25.90;;;8.20;99.90;;;;;;5080994;28;20205;-64
2020/12/12 08:57:27;;;;;;;76.13;24.95;;;8.20;99.90;;;;;;5080736;28;20307;-67
2020/12/12 08:59:59;;;;;;;69.63;25.25;;;8.20;99.90;;;;;;5082056;28;20263;-66
2020/12/12 09:02:26;;;;;;;88.95;25.08;;;8.20;99.90;;;;;;5079849;28;20594;-66
2020/12/12 09:05:08;;;;;;;87.85;24.92;;;8.20;99.90;;;;;;5080975;28;20212;-64
2020/12/12 09:07:36;;;;;;;77.85;25.27;;;8.20;99.90;;;;;;5078641;28;20210;-72
2020/12/12 09:10:10;;;;;;;90.30;25.67;;;8.20;99.90;;;;;;5081658;28;20752;-66
2020/12/12 09:12:43;;;;;;;72.13;25.88;;;8.30;99.90;;;;;;5079894;28;20225;-65
2020/12/12 09:15:10;;;;;;;86.15;26.45;;;8.30;99.90;;;;;;5080742;28;20225;-70
2020/12/12 09:17:36;;;;;;;77.00;24.27;;;8.30;99.90;;;;;;5081642;28;20609;-58
2020/12/12 09:20:03;;;;;;;93.38;26.55;;;8.30;99.90;;;;;;5080394;28;20217;-61
2020/12/12 09:22:30;;;;;;;96.57;26.95;;;8.30;99.90;;;;;;5080868;28;20202;-61
2020/12/12 09:24:57;;;;;;;97.25;27.35;;;8.30;99.90;;;;;;5078338;28;20221;-60
2020/12/12 09:27:23;;;;;;;87.20;26.63;;;8.30;99.90;;;;;;5073235;28;20584;-65
2020/12/12 09:29:49;;;;;;;105.35;26.17;;;8.40;99.90;;;;;;5083877;28;20247;-61
2020/12/12 09:32:16;;;;;;;90.97;25.75;;;8.30;99.90;;;;;;5078072;28;20229;-62
2020/12/12 09:34:42;;;;;;;94.78;26.45;;;8.30;99.90;;;;;;5078946;28;20295;-61
2020/12/12 09:37:08;;;;;;;84.32;26.48;;;8.30;99.90;;;;;;5081326;28;20271;-61
2020/12/12 09:39:34;;;;;;;91.28;26.13;;;8.30;99.90;;;;;;5079127;28;20218;-61
2020/12/12 09:42:02;;;;;;;76.35;25.13;;;8.30;99.90;;;;;;5083686;28;20225;-61
2020/12/12 09:44:28;;;;;;;142.63;26.98;;;8.30;99.90;;;;;;5088313;28;20209;-61
2020/12/12 09:46:54;;;;;;;94.88;26.58;;;8.40;99.90;;;;;;5086949;28;20209;-61
2020/12/12 09:49:21;;;;;;;85.15;25.20;;;8.40;99.90;;;;;;5087759;28;20202;-59
2020/12/12 09:51:47;;;;;;;82.97;25.35;;;8.40;99.90;;;;;;5085303;28;20202;-60
2020/12/12 09:54:15;;;;;;;76.68;25.13;;;8.40;99.90;;;;;;5088827;28;20271;-61
2020/12/12 09:56:41;;;;;;;58.20;23.60;;;8.40;99.90;;;;;;5086089;28;20241;-59
2020/12/12 09:59:08;;;;;;;48.90;22.15;;;8.40;99.90;;;;;;5088305;28;20214;-60
2020/12/12 10:01:34;;;;;;;41.45;21.13;;;8.40;99.90;;;;;;5082064;28;20619;-59
2020/12/12 10:04:01;;;;;;;45.33;20.83;;;8.40;99.90;;;;;;5088944;28;20200;-60
2020/12/12 10:06:27;;;;;;;39.47;20.55;;;8.40;99.90;;;;;;5084265;28;20206;-60
2020/12/12 10:08:53;;;;;;;42.22;20.52;;;8.40;99.90;;;;;;5087135;28;20575;-60
2020/12/12 10:11:19;;;;;;;37.95;19.65;;;8.40;99.90;;;;;;5088422;28;20226;-60
2020/12/12 10:13:46;;;;;;;43.85;19.58;;;8.40;99.90;;;;;;5085358;28;20214;-60
2020/12/12 10:16:13;;;;;;;33.33;18.70;;;8.40;99.90;;;;;;5086701;28;20206;-60
2020/12/12 10:18:39;;;;;;;34.30;18.27;;;8.40;99.90;;;;;;5084499;28;20663;-61
2020/12/12 10:21:05;;;;;;;35.10;18.60;;;8.40;99.90;;;;;;5088027;28;20586;-59
2020/12/12 10:23:32;;;;;;;37.60;17.25;;;8.40;99.90;;;;;;5088131;28;20193;-60
2020/12/12 10:25:58;;;;;;;32.33;17.65;;;8.40;99.90;;;;;;5087677;28;20244;-60
2020/12/12 10:28:24;;;;;;;34.08;17.52;;;8.40;99.90;;;;;;5089159;28;20235;-59
2020/12/12 10:30:50;;;;;;;28.42;16.75;;;8.50;99.90;;;;;;5085627;28;20238;-60
2020/12/12 10:33:17;;;;;;;27.90;16.65;;;8.60;99.90;;;;;;5086830;28;20543;-60
2020/12/12 10:35:44;;;;;;;26.17;15.77;;;8.60;99.90;;;;;;5085983;28;20259;-55
2020/12/12 10:38:12;;;;;;;29.23;16.30;;;8.50;99.90;;;;;;5086813;28;20190;-60
2020/12/12 10:40:40;;;;;;;30.77;17.67;;;8.50;99.90;;;;;;5086829;28;20225;-61
2020/12/12 10:43:08;;;;;;;30.25;16.17;;;8.50;99.90;;;;;;5085761;28;20656;-59
2020/12/12 10:45:34;;;;;;;30.17;17.70;;;8.50;99.90;;;;;;5085969;28;20429;-57
2020/12/12 10:48:00;;;;;;;34.42;18.38;;;8.60;99.90;;;;;;5087228;28;20214;-56
2020/12/12 10:50:29;;;;;;;38.78;20.17;;;8.60;99.90;;;;;;5087311;28;20232;-59
2020/12/12 10:52:55;;;;;;;33.63;19.65;;;8.60;99.90;;;;;;5081460;28;20206;-57
2020/12/12 10:55:21;;;;;;;49.33;22.20;;;8.60;99.90;;;;;;5087643;28;20202;-58
2020/12/12 10:57:48;;;;;;;43.72;23.52;;;8.60;99.90;;;;;;5085107;28;20251;-60
2020/12/12 11:00:22;;;;;;;51.20;23.52;;;8.60;99.90;;;;;;5085303;28;20226;-58
2020/12/12 11:02:48;;;;;;;49.40;22.52;;;8.60;99.90;;;;;;5084238;28;20201;-58
2020/12/12 11:05:14;;;;;;;48.65;22.52;;;8.60;99.90;;;;;;5085570;28;20207;-59
2020/12/12 11:07:41;;;;;;;49.92;23.13;;;8.60;99.90;;;;;;5085854;28;20205;-62
2020/12/12 11:10:08;;;;;;;52.15;23.77;;;8.70;99.90;;;;;;5085122;28;20225;-59
2020/12/12 11:12:34;;;;;;;55.97;25.88;;;8.70;99.90;;;;;;5084505;28;20293;-60
2020/12/12 11:15:00;;;;;;;47.00;25.10;;;8.70;99.90;;;;;;5085293;28;20290;-61
2020/12/12 11:17:27;;;;;;;60.67;26.02;;;8.70;99.90;;;;;;5084184;28;20232;-58
2020/12/12 11:19:53;;;;;;;65.35;27.33;;;8.70;99.90;;;;;;5086412;28;20213;-60
2020/12/12 11:22:19;;;;;;;61.85;26.55;;;8.80;99.90;;;;;;5083100;28;20668;-61
2020/12/12 11:24:46;;;;;;;62.40;26.92;;;8.80;99.90;;;;;;5087658;28;20716;-60
2020/12/12 11:27:12;;;;;;;67.72;28.67;;;8.80;99.90;;;;;;5084077;28;20330;-59
2020/12/12 11:29:39;;;;;;;75.18;29.63;;;8.90;99.90;;;;;;5083871;28;20298;-59
2020/12/12 11:32:09;;;;;;;60.38;28.00;;;9.00;99.90;;;;;;5083710;28;20712;-55
2020/12/12 11:34:39;;;;;;;72.32;29.30;;;9.00;99.90;;;;;;5086064;28;20201;-59
2020/12/12 11:37:29;;;;;;;73.32;29.77;;;9.00;99.90;;;;;;5084661;28;20198;-59
2020/12/12 11:40:04;;;;;;;80.47;28.85;;;9.10;99.90;;;;;;5084648;28;20628;-59
2020/12/12 11:48:10;;;;;;;73.43;30.48;;;9.20;99.90;;;;;;5084523;28;20271;-56
2020/12/12 11:50:37;;;;;;;79.80;30.75;;;9.20;99.90;;;;;;5081456;28;20625;-56
2020/12/12 11:53:03;;;;;;;76.78;30.52;;;9.20;99.90;;;;;;5086232;28;20712;-59
2020/12/12 11:55:31;;;;;;;75.40;30.73;;;9.30;99.90;;;;;;5085947;28;20204;-59
2020/12/12 11:57:57;;;;;;;86.15;31.00;;;9.30;99.90;;;;;;5084814;28;20205;-59
2020/12/12 12:00:25;;;;;;;83.75;31.60;;;9.30;99.90;;;;;;5086678;28;20214;-57
2020/12/12 12:02:51;;;;;;;78.70;32.25;;;9.30;99.90;;;;;;5082789;28;20205;-58
2020/12/12 12:05:18;;;;;;;100.40;33.15;;;9.30;99.90;;;;;;5086552;28;20202;-55
2020/12/12 12:07:46;;;;;;;93.30;32.90;;;9.30;99.90;;;;;;5083265;28;20580;-57
2020/12/12 12:10:24;;;;;;;82.40;33.80;;;9.30;99.90;;;;;;5084720;28;20240;-59
2020/12/12 12:12:51;;;;;;;85.50;33.17;;;9.30;99.90;;;;;;5083950;28;20206;-59
2020/12/12 12:15:18;;;;;;;78.18;32.97;;;9.30;99.90;;;;;;5084578;28;20202;-57
2020/12/12 12:17:44;;;;;;;82.03;32.95;;;9.40;99.90;;;;;;5084595;28;20209;-58
2020/12/12 12:20:10;;;;;;;91.30;34.40;;;9.40;99.90;;;;;;5083741;28;20222;-55
2020/12/12 12:22:37;;;;;;;84.07;33.63;;;9.40;99.90;;;;;;5083875;28;20205;-57
2020/12/12 12:25:05;;;;;;;85.25;35.28;;;9.40;99.90;;;;;;5085330;28;20664;-59
2020/12/12 12:27:33;;;;;;;80.05;32.28;;;9.40;99.90;;;;;;5084700;28;20200;-59
2020/12/12 12:30:00;;;;;;;89.25;35.05;;;9.50;99.90;;;;;;5084400;28;20198;-57
2020/12/12 12:32:27;;;;;;;89.97;35.50;;;9.50;99.90;;;;;;5084618;28;20294;-59
2020/12/12 12:34:53;;;;;;;104.50;36.58;;;9.50;99.90;;;;;;5085406;28;20206;-57
2020/12/12 12:37:19;;;;;;;87.82;35.63;;;9.60;99.90;;;;;;5082989;28;20207;-56
2020/12/12 12:39:46;;;;;;;97.03;36.40;;;9.60;99.90;;;;;;5085474;28;20671;-56
2020/12/12 12:42:12;;;;;;;95.75;34.50;;;9.50;99.90;;;;;;5081506;28;20212;-59